| time (UTC) | temp F | wind direction | speed MPH | gust MPH | rain 1hr in | rain 24hr in | rain mn in | humidity % | barometer mb |
| 20260903160003 | 91 | 153 | 6.0 | 11.0 | 0.00 | 0.00 | 0.00 | 56 | 1013.1 |
| 20260903154537 | 90 | 150 | 6.0 | 14.0 | 0.00 | 0.00 | 0.00 | 59 | 1013.3 |
| 20260903153102 | 88 | 181 | 5.0 | 10.0 | 0.00 | 0.00 | 0.00 | 63 | 1013.4 |
| 20260903151531 | 86 | 172 | 5.0 | 8.0 | 0.00 | 0.00 | 0.00 | 67 | 1013.5 |
| 20260903150107 | 85 | 201 | 6.0 | 11.0 | 0.00 | 0.00 | 0.00 | 70 | 1013.4 |
| 20260903144536 | 84 | 197 | 6.0 | 12.0 | 0.00 | 0.00 | 0.00 | 72 | 1013.4 |
| 20260903143106 | 83 | 212 | 3.0 | 9.0 | 0.00 | 0.00 | 0.00 | 75 | 1013.3 |
| 20260903141529 | 83 | 184 | 3.0 | 10.0 | 0.00 | 0.00 | 0.00 | 77 | 1013.3 |
| 20260903140114 | 82 | 177 | 3.0 | 7.0 | 0.00 | 0.00 | 0.00 | 79 | 1013.5 |
| 20260903134542 | 82 | 191 | 2.0 | 6.0 | 0.00 | 0.00 | 0.00 | 80 | 1013.5 |
| 20260903133004 | 81 | 207 | 1.0 | 5.0 | 0.00 | 0.00 | 0.00 | 81 | 1013.4 |
| 20260903131534 | 81 | 193 | 2.0 | 5.0 | 0.00 | 0.00 | 0.00 | 81 | 1013.3 |
| 20260903130005 | 81 | 189 | 2.0 | 4.0 | 0.00 | 0.00 | 0.00 | 81 | 1013.2 |
| 20260903124537 | 80 | 157 | 1.0 | 3.0 | 0.00 | 0.00 | 0.00 | 81 | 1013.1 |
| 20260903123008 | 80 | 162 | 0.0 | 4.0 | 0.00 | 0.00 | 0.00 | 81 | 1013.0 |
| 20260903121553 | 80 | 168 | 0.0 | 4.0 | 0.00 | 0.00 | 0.00 | 81 | 1012.8 |
| 20260903120011 | 81 | 203 | 1.0 | 4.0 | 0.00 | 0.00 | 0.00 | 81 | 1012.8 |
| 20260903114542 | 81 | 197 | 1.0 | 4.0 | 0.00 | 0.00 | 0.00 | 80 | 1012.7 |
| 20260903113012 | 81 | 183 | 2.0 | 5.0 | 0.00 | 0.00 | 0.00 | 80 | 1012.7 |
| 20260903111547 | 81 | 169 | 3.0 | 6.0 | 0.00 | 0.00 | 0.00 | 80 | 1012.6 |
| 20260903110016 | 81 | 148 | 1.0 | 7.0 | 0.00 | 0.00 | 0.00 | 80 | 1012.6 |
| 20260903104554 | 81 | 147 | 2.0 | 7.0 | 0.00 | 0.00 | 0.00 | 79 | 1012.7 |
| 20260903103015 | 82 | 153 | 2.0 | 6.0 | 0.00 | 0.00 | 0.00 | 79 | 1012.7 |
| 20260903101553 | 82 | 144 | 2.0 | 6.0 | 0.00 | 0.00 | 0.00 | 79 | 1012.7 |
| 20260903100036 | 82 | 203 | 2.0 | 6.0 | 0.00 | 0.00 | 0.00 | 79 | 1012.6 |
| 20260903094602 | 82 | 210 | 3.0 | 6.0 | 0.00 | 0.00 | 0.00 | 78 | 1012.6 |
| 20260903093030 | 82 | 204 | 4.0 | 6.0 | 0.00 | 0.00 | 0.00 | 78 | 1012.7 |
| 20260903091605 | 82 | 170 | 2.0 | 8.0 | 0.00 | 0.00 | 0.00 | 78 | 1012.8 |
| 20260903090033 | 82 | 168 | 4.0 | 8.0 | 0.00 | 0.00 | 0.00 | 77 | 1012.7 |
| 20260903084508 | 82 | 190 | 4.0 | 11.0 | 0.00 | 0.00 | 0.00 | 77 | 1012.5 |
| 20260903083036 | 82 | 209 | 3.0 | 11.0 | 0.00 | 0.00 | 0.00 | 77 | 1012.7 |
| 20260903081508 | 82 | 123 | 4.0 | 9.0 | 0.00 | 0.00 | 0.00 | 78 | 1012.5 |
| 20260903080042 | 82 | 213 | 3.0 | 8.0 | 0.00 | 0.00 | 0.00 | 78 | 1012.6 |
| 20260903074510 | 82 | 208 | 4.0 | 7.0 | 0.00 | 0.00 | 0.00 | 77 | 1012.7 |
| 20260903073041 | 82 | 141 | 2.0 | 9.0 | 0.00 | 0.00 | 0.00 | 77 | 1012.6 |
| 20260903071515 | 82 | 109 | 4.0 | 10.0 | 0.00 | 0.00 | 0.00 | 77 | 1012.6 |
| 20260903070147 | 83 | 143 | 4.0 | 9.0 | 0.00 | 0.00 | 0.00 | 76 | 1012.7 |
| 20260903064515 | 83 | 177 | 3.0 | 11.0 | 0.00 | 0.00 | 0.00 | 76 | 1012.8 |
| 20260903063049 | 83 | 110 | 4.0 | 8.0 | 0.00 | 0.00 | 0.00 | 75 | 1012.8 |
| 20260903061518 | 83 | 148 | 3.0 | 7.0 | 0.00 | 0.00 | 0.00 | 75 | 1012.9 |
| 20260903060059 | 83 | 127 | 3.0 | 11.0 | 0.00 | 0.00 | 0.00 | 75 | 1013.0 |
| 20260903054519 | 83 | 157 | 4.0 | 8.0 | 0.00 | 0.00 | 0.00 | 75 | 1013.0 |
| 20260903053049 | 83 | 136 | 4.0 | 10.0 | 0.00 | 0.00 | 0.00 | 74 | 1013.0 |
| 20260903051518 | 83 | 130 | 5.0 | 9.0 | 0.00 | 0.00 | 0.00 | 74 | 1013.0 |
| 20260903050050 | 83 | 127 | 6.0 | 12.0 | 0.00 | 0.00 | 0.00 | 74 | 1013.1 |
| 20260903044520 | 83 | 142 | 2.0 | 11.0 | 0.00 | 0.00 | 0.00 | 73 | 1012.9 |
| 20260903043100 | 83 | 108 | 6.0 | 12.0 | 0.00 | 0.00 | 0.00 | 73 | 1013.4 |
| 20260903041527 | 83 | 139 | 4.0 | 12.0 | 0.00 | 0.00 | 0.00 | 72 | 1013.1 |
| 20260903040100 | 84 | 124 | 5.0 | 11.0 | 0.00 | 0.00 | 0.00 | 71 | 1012.6 |
| 20260903034529 | 84 | 129 | 6.0 | 13.0 | 0.00 | 0.00 | 0.00 | 70 | 1012.4 |
| 20260903033103 | 85 | 134 | 3.0 | 11.0 | 0.00 | 0.00 | 0.00 | 68 | 1012.3 |
| 20260903031540 | 85 | 122 | 4.0 | 14.0 | 0.00 | 0.00 | 0.00 | 66 | 1012.1 |
| 20260903030005 | 86 | 134 | 6.0 | 14.0 | 0.00 | 0.00 | 0.00 | 64 | 1011.8 |
| 20260903024537 | 87 | 191 | 6.0 | 17.0 | 0.00 | 0.00 | 0.00 | 62 | 1011.5 |
| 20260903023008 | 88 | 157 | 7.0 | 12.0 | 0.00 | 0.00 | 0.00 | 60 | 1011.2 |
| 20260903021547 | 89 | 173 | 6.0 | 15.0 | 0.00 | 0.00 | 0.00 | 56 | 1010.9 |
| 20260903020021 | 90 | 140 | 6.0 | 11.0 | 0.00 | 0.00 | 0.00 | 53 | 1010.5 |
| 20260903014551 | 91 | 131 | 6.0 | 15.0 | 0.00 | 0.00 | 0.00 | 50 | 1010.3 |
| 20260903013009 | 93 | 124 | 6.0 | 15.0 | 0.00 | 0.00 | 0.00 | 46 | 1010.1 |
| 20260903011600 | 94 | 158 | 4.0 | 13.0 | 0.00 | 0.00 | 0.00 | 44 | 1009.8 |
| 20260903010015 | 95 | 160 | 5.0 | 13.0 | 0.00 | 0.00 | 0.00 | 44 | 1009.7 |
| 20260903004548 | 96 | 144 | 4.0 | 13.0 | 0.00 | 0.00 | 0.00 | 43 | 1009.4 |
| 20260903003016 | 99 | 136 | 4.0 | 12.0 | 0.00 | 0.00 | 0.00 | 37 | 1009.4 |
| 20260903001548 | 104 | 119 | 1.0 | 4.0 | 0.00 | 0.00 | 0.00 | 25 | 1009.4 |
| 20260903000035 | 103 | 229 | 1.0 | 3.0 | 0.00 | 0.00 | 0.00 | 26 | 1009.3 |
| 20260902234558 | 104 | 209 | 1.0 | 4.0 | 0.00 | 0.00 | 0.00 | 26 | 1009.3 |
| 20260902233032 | 104 | 229 | 0.0 | 1.0 | 0.00 | 0.00 | 0.00 | 27 | 1009.4 |
| 20260902231555 | 104 | 170 | 1.0 | 6.0 | 0.00 | 0.00 | 0.00 | 27 | 1009.4 |
| 20260902230023 | 105 | 134 | 1.0 | 9.0 | 0.00 | 0.00 | 0.00 | 26 | 1009.5 |
| 20260902224607 | 105 | 192 | 3.0 | 8.0 | 0.00 | 0.00 | 0.00 | 26 | 1009.5 |
| 20260902223029 | 105 | 66 | 2.0 | 7.0 | 0.00 | 0.00 | 0.00 | 27 | 1009.5 |
| 20260902221559 | 105 | 238 | 1.0 | 5.0 | 0.00 | 0.00 | 0.00 | 27 | 1009.6 |
| 20260902220041 | 104 | 211 | 5.0 | 9.0 | 0.00 | 0.00 | 0.00 | 27 | 1009.7 |
| 20260902214612 | 104 | 159 | 4.0 | 8.0 | 0.00 | 0.00 | 0.00 | 28 | 1009.7 |
| 20260902213030 | 104 | 106 | 1.0 | 5.0 | 0.00 | 0.00 | 0.00 | 29 | 1009.9 |
| 20260902211602 | 102 | 217 | 0.0 | 6.0 | 0.00 | 0.00 | 0.00 | 31 | 1010.1 |
| 20260902210035 | 103 | 335 | 0.0 | 9.0 | 0.00 | 0.00 | 0.00 | 31 | 1010.3 |
| 20260902204504 | 101 | 329 | 1.0 | 7.0 | 0.00 | 0.00 | 0.00 | 31 | 1010.5 |
| 20260902203039 | 102 | 224 | 3.0 | 7.0 | 0.00 | 0.00 | 0.00 | 30 | 1010.9 |
| 20260902201518 | 104 | 179 | 4.0 | 7.0 | 0.00 | 0.00 | 0.00 | 28 | 1011.0 |
| 20260902200036 | 103 | 47 | 1.0 | 5.0 | 0.00 | 0.00 | 0.00 | 30 | 1011.3 |
| 20260902194502 | 102 | 57 | 0.0 | 6.0 | 0.00 | 0.00 | 0.00 | 31 | 1011.6 |
| 20260902193033 | 101 | 96 | 1.0 | 9.0 | 0.00 | 0.00 | 0.00 | 33 | 1011.9 |
| 20260902191504 | 101 | 113 | 3.0 | 13.0 | 0.00 | 0.00 | 0.00 | 34 | 1012.2 |
| 20260902190032 | 101 | 220 | 1.0 | 8.0 | 0.00 | 0.00 | 0.00 | 34 | 1012.4 |
| 20260902184607 | 99 | 170 | 3.0 | 10.0 | 0.00 | 0.00 | 0.00 | 36 | 1012.8 |
| 20260902183040 | 99 | 207 | 2.0 | 8.0 | 0.00 | 0.00 | 0.00 | 36 | 1013.1 |
| 20260902181603 | 98 | 225 | 1.0 | 11.0 | 0.00 | 0.00 | 0.00 | 38 | 1013.3 |
| 20260902180032 | 97 | 177 | 3.0 | 9.0 | 0.00 | 0.00 | 0.00 | 42 | 1013.6 |
| 20260902174601 | 96 | 200 | 6.0 | 10.0 | 0.00 | 0.00 | 0.00 | 42 | 1014.0 |
| 20260902173020 | 96 | 216 | 6.0 | 15.0 | 0.00 | 0.00 | 0.00 | 47 | 1014.3 |
| 20260902171545 | 95 | 219 | 6.0 | 10.0 | 0.00 | 0.00 | 0.00 | 50 | 1014.5 |
| 20260902170012 | 94 | 174 | 4.0 | 10.0 | 0.00 | 0.00 | 0.00 | 52 | 1014.8 |
| 20260902164544 | 92 | 134 | 3.0 | 10.0 | 0.00 | 0.00 | 0.00 | 55 | 1014.9 |
| 20260902163013 | 91 | 200 | 5.0 | 11.0 | 0.00 | 0.00 | 0.00 | 58 | 1015.1 |
| 20260902161544 | 90 | 226 | 3.0 | 10.0 | 0.00 | 0.00 | 0.00 | 60 | 1015.1 |